Plateau City, Colorado
Current Conditions -  °F | °C
As of 11:53 AM on Tuesday 21 Oct 2014 (Local Time) from KRIL Reporting Station
Overcast Overcast  
Wind Chill: 55°   Ceiling: 8500
Heat Index: 55°   Visibility: 10mi
Dew Point: 42°   Wind: 8mph
Humidity: 62%   Direction: 110°ESE
Pressure: 30.1"   Gusts: NA
Location:  39.245°N, 107.783°W
Report Text: KRIL 211753Z AUTO 11007KT 10SM SCT065 OVC085 13/06 A3010 RMK AO2 RAE1655 SLP160 P0000 60000 T01280056 10128 20056 58006
Loading
Personal Weather Stations






























Interactive Weather Map
Tropical Storm Tracking
New forecast layout! Learn more

10-Day Weather Forecast

Advertisements
Track Severe Weather on mobile